Bayside, NY

3:12 PM EDT on August 30, 2015 (GMT -0400)
Oakland Gardens | | Change Station
CLOSE
Current Station
Personal Weather Station
Location: New York, NY
Elevation: 95 ft
Nearby Weather Stations

Elev 95 ft 40.75 °N, 73.75 °W | Updated 1 minute ago

Mostly Cloudy
Mostly Cloudy
86.9 °F
Feels Like 93 °F
N
1.0
Wind Variable Wind from NNW
Gusts 2.0 mph

Today
High -- | Low -- °F
--% Chance of Precip.
Yesterday
High -- | Low -- °F
Precip. -- in
6:19 AM 7:31 PM
Full, 98% visible
Pressure 30.04 in
Visibility 10.0 miles
Clouds Scattered Clouds 5000 ft
Scattered Clouds 7500 ft
Mostly Cloudy 17000 ft
Mostly Cloudy 25000 ft
Heat Index 93 °F
Dew Point 72 °F
Humidity 61%
Rainfall 0.00 in
Snow Depth Not available.
UV 4 out of 12
Pollen 10.30 out of 12
Air Quality Not available.
Flu Activity Not available.
METAR KLGA 301851Z 17011KT 10SM SCT050TCU SCT075 BKN170 BKN250 32/18 A3003 RMK AO2 SLP170 TCU NW-N T03170183
Pressure 30.04 in
Visibility 10.0 miles
Clouds Scattered Clouds 5000 ft
Scattered Clouds 7500 ft
Mostly Cloudy 17000 ft
Mostly Cloudy 25000 ft
Heat Index 93 °F
Dew Point 72 °F
Humidity 61%
Rainfall 0.00 in
Snow Depth Not available.
UV 4 out of 12
Pollen 10.30 out of 12
Air Quality Not available.
Flu Activity Not available.
METAR KLGA 301851Z 17011KT 10SM SCT050TCU SCT075 BKN170 BKN250 32/18 A3003 RMK AO2 SLP170 TCU NW-N T03170183

10-Day Weather Forecast

×

Almanac

Astronomy

Aug. 30, 2015 Rise Set
Actual Time
Civil Twilight
Nautical Twilight
Astronomical Twilight
Moon
Length of Visible Light
Length of Day
Tomorrow will be .
, % of the Moon is Illuminated

Today's Extremes

State Highs State Lows

Community

WunderPhotos

Upload Photos

1,851,036 photos uploaded!

WunderBlogs® & News

Nearby

Air Quality

  Air Quality AQ Index Pollutant
Not available.

Snow Depth

Station Depth Elevation

Earthquake Activity

City Distance Mag. Time & Date
Minimum magnitude displayed is 2.5.

Coastal Water Temperatures

Place Temperature

Stations

Nearby Weather Stations

Station Location Temp. Windchill Dew Point Humidity Wind Precip. Elev Updated Type